Terminal Aerodrome Forecast
Issued by NWS

Home | Current Version | Previous Version | Text Only | Print | Product List | Glossary On
Versions: 1 2 3 4 5 6 7 8 9 10 11 12 13
000
FTUS45 KGJT 190536
TAFVEL
TAF
KVEL 190536Z 1906/2006 20006KT P6SM VCSH SCT080 BKN100
     FM190800 11006KT P6SM VCSH BKN070
     FM191300 29008KT P6SM -SHSN OVC050
      TEMPO 1915/1919 11010KT 2SM -SHSN BLSN BKN035 BKN040
     FM192300 36011KT P6SM VCSH BKN040 BKN050
     FM200300 05010KT P6SM BKN045 OVC060=

USA.gov is the U.S. government's official web portal to all federal, state and local government web resources and services.